sensor_id;sensor_type;location;lat;lon;timestamp;temperature;humidity
20777;DHT22;10548;47.504;8.248;2022-08-20T00:01:11;16.60;99.90
20777;DHT22;10548;47.504;8.248;2022-08-20T00:03:40;16.50;99.90
20777;DHT22;10548;47.504;8.248;2022-08-20T00:06:17;16.60;99.90
20777;DHT22;10548;47.504;8.248;2022-08-20T00:08:45;16.60;99.90
20777;DHT22;10548;47.504;8.248;2022-08-20T00:11:20;16.60;99.90
20777;DHT22;10548;47.504;8.248;2022-08-20T00:13:54;16.50;99.90
20777;DHT22;10548;47.504;8.248;2022-08-20T00:16:24;16.60;99.90
20777;DHT22;10548;47.504;8.248;2022-08-20T00:18:53;16.50;99.90
20777;DHT22;10548;47.504;8.248;2022-08-20T00:21:20;16.50;99.90
20777;DHT22;10548;47.504;8.248;2022-08-20T00:23:50;16.50;99.90
20777;DHT22;10548;47.504;8.248;2022-08-20T00:26:18;16.40;99.90
20777;DHT22;10548;47.504;8.248;2022-08-20T00:28:45;16.40;99.90
20777;DHT22;10548;47.504;8.248;2022-08-20T00:31:14;16.40;99.90
20777;DHT22;10548;47.504;8.248;2022-08-20T00:33:43;16.30;99.90
20777;DHT22;10548;47.504;8.248;2022-08-20T00:36:11;16.40;99.90
20777;DHT22;10548;47.504;8.248;2022-08-20T00:38:40;16.40;99.90
20777;DHT22;10548;47.504;8.248;2022-08-20T00:41:14;16.40;99.90
20777;DHT22;10548;47.504;8.248;2022-08-20T00:43:48;16.40;99.90
20777;DHT22;10548;47.504;8.248;2022-08-20T00:46:23;16.40;99.90
20777;DHT22;10548;47.504;8.248;2022-08-20T00:48:58;16.30;99.90
20777;DHT22;10548;47.504;8.248;2022-08-20T00:51:41;16.30;99.90
20777;DHT22;10548;47.504;8.248;2022-08-20T00:54:23;16.30;99.90
20777;DHT22;10548;47.504;8.248;2022-08-20T00:57:12;16.30;99.90
20777;DHT22;10548;47.504;8.248;2022-08-20T00:59:42;16.30;99.90
20777;DHT22;10548;47.504;8.248;2022-08-20T01:02:15;16.20;99.90
20777;DHT22;10548;47.504;8.248;2022-08-20T01:04:44;16.20;99.90
20777;DHT22;10548;47.504;8.248;2022-08-20T01:07:23;16.20;99.90
20777;DHT22;10548;47.504;8.248;2022-08-20T01:09:59;16.40;99.90
20777;DHT22;10548;47.504;8.248;2022-08-20T01:12:28;16.40;99.90
20777;DHT22;10548;47.504;8.248;2022-08-20T01:14:57;16.30;99.90
20777;DHT22;10548;47.504;8.248;2022-08-20T01:17:29;16.40;99.90
20777;DHT22;10548;47.504;8.248;2022-08-20T01:20:07;16.30;99.90
20777;DHT22;10548;47.504;8.248;2022-08-20T01:22:49;16.30;99.90
20777;DHT22;10548;47.504;8.248;2022-08-20T01:26:09;16.30;99.90
20777;DHT22;10548;47.504;8.248;2022-08-20T01:29:08;16.40;99.90
20777;DHT22;10548;47.504;8.248;2022-08-20T01:31:38;16.40;99.90
20777;DHT22;10548;47.504;8.248;2022-08-20T01:34:08;16.50;99.90
20777;DHT22;10548;47.504;8.248;2022-08-20T01:36:40;16.40;99.90
20777;DHT22;10548;47.504;8.248;2022-08-20T01:39:15;16.30;99.90
20777;DHT22;10548;47.504;8.248;2022-08-20T01:44:46;16.30;99.90
20777;DHT22;10548;47.504;8.248;2022-08-20T01:47:19;16.40;99.90
20777;DHT22;10548;47.504;8.248;2022-08-20T01:49:56;16.30;99.90
20777;DHT22;10548;47.504;8.248;2022-08-20T01:53:07;16.20;99.90
20777;DHT22;10548;47.504;8.248;2022-08-20T01:55:37;16.30;99.90
20777;DHT22;10548;47.504;8.248;2022-08-20T01:58:04;16.30;99.90
20777;DHT22;10548;47.504;8.248;2022-08-20T02:00:31;16.30;99.90
20777;DHT22;10548;47.504;8.248;2022-08-20T02:03:01;16.30;99.90
20777;DHT22;10548;47.504;8.248;2022-08-20T02:05:31;16.40;99.90
20777;DHT22;10548;47.504;8.248;2022-08-20T02:08:00;16.40;99.90
20777;DHT22;10548;47.504;8.248;2022-08-20T02:10:28;16.40;99.90
20777;DHT22;10548;47.504;8.248;2022-08-20T02:12:58;16.40;99.90
20777;DHT22;10548;47.504;8.248;2022-08-20T02:15:26;16.40;99.90
20777;DHT22;10548;47.504;8.248;2022-08-20T02:18:08;16.40;99.90
20777;DHT22;10548;47.504;8.248;2022-08-20T02:20:38;16.40;99.90
20777;DHT22;10548;47.504;8.248;2022-08-20T02:23:07;16.40;99.90
20777;DHT22;10548;47.504;8.248;2022-08-20T02:25:37;16.30;99.90
20777;DHT22;10548;47.504;8.248;2022-08-20T02:28:09;16.30;99.90
20777;DHT22;10548;47.504;8.248;2022-08-20T02:30:42;16.30;99.90
20777;DHT22;10548;47.504;8.248;2022-08-20T02:33:13;16.30;99.90
20777;DHT22;10548;47.504;8.248;2022-08-20T02:35:45;16.30;99.90
20777;DHT22;10548;47.504;8.248;2022-08-20T02:38:13;16.40;99.90
20777;DHT22;10548;47.504;8.248;2022-08-20T02:40:43;16.40;99.90
20777;DHT22;10548;47.504;8.248;2022-08-20T02:43:11;16.50;99.90
20777;DHT22;10548;47.504;8.248;2022-08-20T02:45:38;16.50;99.90
20777;DHT22;10548;47.504;8.248;2022-08-20T02:48:12;16.50;99.90
20777;DHT22;10548;47.504;8.248;2022-08-20T02:50:52;16.50;99.90
20777;DHT22;10548;47.504;8.248;2022-08-20T02:53:20;16.60;99.90
20777;DHT22;10548;47.504;8.248;2022-08-20T02:55:48;16.60;99.90
20777;DHT22;10548;47.504;8.248;2022-08-20T02:58:16;16.60;99.90
20777;DHT22;10548;47.504;8.248;2022-08-20T03:00:44;16.60;99.90
20777;DHT22;10548;47.504;8.248;2022-08-20T03:03:12;16.60;99.90
20777;DHT22;10548;47.504;8.248;2022-08-20T03:05:43;16.60;99.90
20777;DHT22;10548;47.504;8.248;2022-08-20T03:08:11;16.50;99.90
20777;DHT22;10548;47.504;8.248;2022-08-20T03:10:40;16.50;99.90
20777;DHT22;10548;47.504;8.248;2022-08-20T03:13:08;16.60;99.90
20777;DHT22;10548;47.504;8.248;2022-08-20T03:15:44;16.50;99.90
20777;DHT22;10548;47.504;8.248;2022-08-20T03:18:12;16.50;99.90
20777;DHT22;10548;47.504;8.248;2022-08-20T03:20:39;16.40;99.90
20777;DHT22;10548;47.504;8.248;2022-08-20T03:23:06;16.30;99.90
20777;DHT22;10548;47.504;8.248;2022-08-20T03:25:33;16.40;99.90
20777;DHT22;10548;47.504;8.248;2022-08-20T03:28:01;16.40;99.90
20777;DHT22;10548;47.504;8.248;2022-08-20T03:30:28;16.30;99.90
20777;DHT22;10548;47.504;8.248;2022-08-20T03:32:56;16.40;99.90
20777;DHT22;10548;47.504;8.248;2022-08-20T03:35:25;16.40;99.90
20777;DHT22;10548;47.504;8.248;2022-08-20T03:37:52;16.40;99.90
20777;DHT22;10548;47.504;8.248;2022-08-20T03:40:25;16.30;99.90
20777;DHT22;10548;47.504;8.248;2022-08-20T03:42:52;16.30;99.90
20777;DHT22;10548;47.504;8.248;2022-08-20T03:45:21;16.30;99.90
20777;DHT22;10548;47.504;8.248;2022-08-20T03:47:49;16.30;99.90
20777;DHT22;10548;47.504;8.248;2022-08-20T03:50:19;16.40;99.90
20777;DHT22;10548;47.504;8.248;2022-08-20T03:52:53;16.40;99.90
20777;DHT22;10548;47.504;8.248;2022-08-20T03:55:22;16.30;99.90
20777;DHT22;10548;47.504;8.248;2022-08-20T03:57:55;16.30;99.90
20777;DHT22;10548;47.504;8.248;2022-08-20T04:00:38;16.40;99.90
20777;DHT22;10548;47.504;8.248;2022-08-20T04:03:07;16.30;99.90
20777;DHT22;10548;47.504;8.248;2022-08-20T04:05:36;16.40;99.90
20777;DHT22;10548;47.504;8.248;2022-08-20T04:08:08;16.40;99.90
20777;DHT22;10548;47.504;8.248;2022-08-20T04:10:36;16.40;99.90
20777;DHT22;10548;47.504;8.248;2022-08-20T04:13:04;16.40;99.90
20777;DHT22;10548;47.504;8.248;2022-08-20T04:15:34;16.40;99.90
20777;DHT22;10548;47.504;8.248;2022-08-20T04:18:05;16.30;99.90
20777;DHT22;10548;47.504;8.248;2022-08-20T04:20:35;16.30;99.90
20777;DHT22;10548;47.504;8.248;2022-08-20T04:23:03;16.30;99.90
20777;DHT22;10548;47.504;8.248;2022-08-20T04:25:32;16.30;99.90
20777;DHT22;10548;47.504;8.248;2022-08-20T04:28:04;16.30;99.90
20777;DHT22;10548;47.504;8.248;2022-08-20T04:30:32;16.40;99.90
20777;DHT22;10548;47.504;8.248;2022-08-20T04:33:00;16.40;99.90
20777;DHT22;10548;47.504;8.248;2022-08-20T04:35:29;16.40;99.90
20777;DHT22;10548;47.504;8.248;2022-08-20T04:37:58;16.40;99.90
20777;DHT22;10548;47.504;8.248;2022-08-20T04:40:27;16.40;99.90
20777;DHT22;10548;47.504;8.248;2022-08-20T04:43:13;16.40;99.90
20777;DHT22;10548;47.504;8.248;2022-08-20T04:45:41;16.50;99.90
20777;DHT22;10548;47.504;8.248;2022-08-20T04:48:08;16.50;99.90
20777;DHT22;10548;47.504;8.248;2022-08-20T04:50:42;16.50;99.90
20777;DHT22;10548;47.504;8.248;2022-08-20T04:53:11;16.60;99.90
20777;DHT22;10548;47.504;8.248;2022-08-20T04:55:40;16.60;99.90
20777;DHT22;10548;47.504;8.248;2022-08-20T04:58:20;16.60;99.90
20777;DHT22;10548;47.504;8.248;2022-08-20T05:00:50;16.70;99.90
20777;DHT22;10548;47.504;8.248;2022-08-20T05:03:18;16.70;99.90
20777;DHT22;10548;47.504;8.248;2022-08-20T05:05:46;16.80;99.90
20777;DHT22;10548;47.504;8.248;2022-08-20T05:08:14;16.80;99.90
20777;DHT22;10548;47.504;8.248;2022-08-20T05:10:46;16.80;99.90
20777;DHT22;10548;47.504;8.248;2022-08-20T05:13:14;16.90;99.90
20777;DHT22;10548;47.504;8.248;2022-08-20T05:15:41;17.00;99.90
20777;DHT22;10548;47.504;8.248;2022-08-20T05:18:11;17.00;99.90
20777;DHT22;10548;47.504;8.248;2022-08-20T05:20:41;17.00;99.90
20777;DHT22;10548;47.504;8.248;2022-08-20T05:23:09;17.10;99.90
20777;DHT22;10548;47.504;8.248;2022-08-20T05:25:38;17.30;99.90
20777;DHT22;10548;47.504;8.248;2022-08-20T05:28:11;17.30;99.90
20777;DHT22;10548;47.504;8.248;2022-08-20T05:30:41;17.30;99.90
20777;DHT22;10548;47.504;8.248;2022-08-20T05:33:10;17.40;99.90
20777;DHT22;10548;47.504;8.248;2022-08-20T05:35:40;17.40;99.90
20777;DHT22;10548;47.504;8.248;2022-08-20T05:38:10;17.40;99.90
20777;DHT22;10548;47.504;8.248;2022-08-20T05:40:40;17.50;99.90
20777;DHT22;10548;47.504;8.248;2022-08-20T05:43:08;17.60;99.90
20777;DHT22;10548;47.504;8.248;2022-08-20T05:45:36;17.60;99.90
20777;DHT22;10548;47.504;8.248;2022-08-20T05:48:09;17.70;99.90
20777;DHT22;10548;47.504;8.248;2022-08-20T05:50:38;17.70;99.90
20777;DHT22;10548;47.504;8.248;2022-08-20T05:53:05;17.80;99.90
20777;DHT22;10548;47.504;8.248;2022-08-20T05:55:33;17.80;99.90
20777;DHT22;10548;47.504;8.248;2022-08-20T05:58:05;18.00;99.90
20777;DHT22;10548;47.504;8.248;2022-08-20T06:00:34;18.30;99.90
20777;DHT22;10548;47.504;8.248;2022-08-20T06:03:01;18.10;99.90
20777;DHT22;10548;47.504;8.248;2022-08-20T06:05:47;18.30;99.90
20777;DHT22;10548;47.504;8.248;2022-08-20T06:08:14;18.40;99.90
20777;DHT22;10548;47.504;8.248;2022-08-20T06:10:42;18.40;99.90
20777;DHT22;10548;47.504;8.248;2022-08-20T06:13:10;18.40;99.90
20777;DHT22;10548;47.504;8.248;2022-08-20T06:15:40;18.50;99.90
20777;DHT22;10548;47.504;8.248;2022-08-20T06:18:08;18.40;99.90
20777;DHT22;10548;47.504;8.248;2022-08-20T06:20:54;18.30;99.90
20777;DHT22;10548;47.504;8.248;2022-08-20T06:23:21;18.50;99.90
20777;DHT22;10548;47.504;8.248;2022-08-20T06:25:51;18.40;99.90
20777;DHT22;10548;47.504;8.248;2022-08-20T06:33:13;18.40;99.90
20777;DHT22;10548;47.504;8.248;2022-08-20T06:35:41;18.50;99.90
20777;DHT22;10548;47.504;8.248;2022-08-20T06:38:10;18.30;99.90
20777;DHT22;10548;47.504;8.248;2022-08-20T06:45:35;18.40;99.90
20777;DHT22;10548;47.504;8.248;2022-08-20T06:50:43;18.40;99.90
20777;DHT22;10548;47.504;8.248;2022-08-20T06:53:16;18.40;99.90
20777;DHT22;10548;47.504;8.248;2022-08-20T06:58:15;18.40;99.90
20777;DHT22;10548;47.504;8.248;2022-08-20T07:01:02;18.60;99.90
20777;DHT22;10548;47.504;8.248;2022-08-20T07:03:37;18.50;99.90
20777;DHT22;10548;47.504;8.248;2022-08-20T07:06:05;18.50;99.90
20777;DHT22;10548;47.504;8.248;2022-08-20T07:08:32;18.50;99.90
20777;DHT22;10548;47.504;8.248;2022-08-20T07:10:59;18.50;99.90
20777;DHT22;10548;47.504;8.248;2022-08-20T07:13:27;18.50;99.90
20777;DHT22;10548;47.504;8.248;2022-08-20T07:15:55;18.50;99.90
20777;DHT22;10548;47.504;8.248;2022-08-20T07:18:22;18.70;99.90
20777;DHT22;10548;47.504;8.248;2022-08-20T07:20:55;18.70;99.90
20777;DHT22;10548;47.504;8.248;2022-08-20T07:23:24;18.80;99.90
20777;DHT22;10548;47.504;8.248;2022-08-20T07:25:52;18.80;99.90
20777;DHT22;10548;47.504;8.248;2022-08-20T07:28:24;18.80;99.90
20777;DHT22;10548;47.504;8.248;2022-08-20T07:30:54;18.80;99.90
20777;DHT22;10548;47.504;8.248;2022-08-20T07:33:57;18.80;99.90
20777;DHT22;10548;47.504;8.248;2022-08-20T07:36:26;18.70;99.90
20777;DHT22;10548;47.504;8.248;2022-08-20T07:38:54;18.60;99.90
20777;DHT22;10548;47.504;8.248;2022-08-20T07:41:22;18.40;99.90
20777;DHT22;10548;47.504;8.248;2022-08-20T07:43:50;18.40;99.90
20777;DHT22;10548;47.504;8.248;2022-08-20T07:46:18;18.30;99.90
20777;DHT22;10548;47.504;8.248;2022-08-20T07:48:48;18.30;99.90
20777;DHT22;10548;47.504;8.248;2022-08-20T07:51:18;18.30;99.90
20777;DHT22;10548;47.504;8.248;2022-08-20T07:53:46;18.30;99.90
20777;DHT22;10548;47.504;8.248;2022-08-20T07:56:19;18.30;99.90
20777;DHT22;10548;47.504;8.248;2022-08-20T07:58:53;18.10;99.90
20777;DHT22;10548;47.504;8.248;2022-08-20T08:01:24;18.10;99.90
20777;DHT22;10548;47.504;8.248;2022-08-20T08:03:52;18.00;99.90
20777;DHT22;10548;47.504;8.248;2022-08-20T08:06:21;17.90;99.90
20777;DHT22;10548;47.504;8.248;2022-08-20T08:09:11;17.90;99.90
20777;DHT22;10548;47.504;8.248;2022-08-20T08:11:42;18.00;99.90
20777;DHT22;10548;47.504;8.248;2022-08-20T08:14:19;18.00;99.90
20777;DHT22;10548;47.504;8.248;2022-08-20T08:16:49;18.00;99.90
20777;DHT22;10548;47.504;8.248;2022-08-20T08:19:18;18.10;99.90
20777;DHT22;10548;47.504;8.248;2022-08-20T08:21:46;18.10;99.90
20777;DHT22;10548;47.504;8.248;2022-08-20T08:24:13;18.20;99.90
20777;DHT22;10548;47.504;8.248;2022-08-20T08:26:48;18.20;99.90
20777;DHT22;10548;47.504;8.248;2022-08-20T08:29:16;18.00;99.90
20777;DHT22;10548;47.504;8.248;2022-08-20T08:31:43;18.10;99.90
20777;DHT22;10548;47.504;8.248;2022-08-20T08:34:11;17.90;99.90
20777;DHT22;10548;47.504;8.248;2022-08-20T08:36:39;17.90;99.90
20777;DHT22;10548;47.504;8.248;2022-08-20T08:39:06;17.70;99.90
20777;DHT22;10548;47.504;8.248;2022-08-20T08:41:36;17.70;99.90
20777;DHT22;10548;47.504;8.248;2022-08-20T08:44:09;17.70;99.90
20777;DHT22;10548;47.504;8.248;2022-08-20T08:46:43;17.70;99.90
20777;DHT22;10548;47.504;8.248;2022-08-20T08:49:23;17.80;99.90
20777;DHT22;10548;47.504;8.248;2022-08-20T08:52:09;17.80;99.90
20777;DHT22;10548;47.504;8.248;2022-08-20T08:54:41;17.90;99.90
20777;DHT22;10548;47.504;8.248;2022-08-20T08:57:09;18.20;99.90
20777;DHT22;10548;47.504;8.248;2022-08-20T08:59:36;18.10;99.90
20777;DHT22;10548;47.504;8.248;2022-08-20T09:02:26;18.00;99.90
20777;DHT22;10548;47.504;8.248;2022-08-20T09:04:55;18.10;99.90
20777;DHT22;10548;47.504;8.248;2022-08-20T09:07:26;17.90;99.90
20777;DHT22;10548;47.504;8.248;2022-08-20T09:09:54;18.10;99.90
20777;DHT22;10548;47.504;8.248;2022-08-20T09:12:23;18.50;99.90
20777;DHT22;10548;47.504;8.248;2022-08-20T09:14:53;18.70;99.90
20777;DHT22;10548;47.504;8.248;2022-08-20T09:17:22;18.90;99.90
20777;DHT22;10548;47.504;8.248;2022-08-20T09:19:49;19.00;99.90
20777;DHT22;10548;47.504;8.248;2022-08-20T09:22:21;19.20;99.90
20777;DHT22;10548;47.504;8.248;2022-08-20T09:24:49;19.20;99.90
20777;DHT22;10548;47.504;8.248;2022-08-20T09:27:16;19.40;99.90
20777;DHT22;10548;47.504;8.248;2022-08-20T09:29:43;19.50;99.90
20777;DHT22;10548;47.504;8.248;2022-08-20T09:32:19;19.40;99.90
20777;DHT22;10548;47.504;8.248;2022-08-20T09:34:49;19.50;99.90
20777;DHT22;10548;47.504;8.248;2022-08-20T09:37:24;19.60;99.90
20777;DHT22;10548;47.504;8.248;2022-08-20T09:39:51;19.70;99.90
20777;DHT22;10548;47.504;8.248;2022-08-20T09:42:30;19.70;99.90
20777;DHT22;10548;47.504;8.248;2022-08-20T09:45:01;19.90;99.90
20777;DHT22;10548;47.504;8.248;2022-08-20T09:47:29;19.80;99.90
20777;DHT22;10548;47.504;8.248;2022-08-20T09:49:56;19.20;99.90
20777;DHT22;10548;47.504;8.248;2022-08-20T09:52:35;19.40;99.90
20777;DHT22;10548;47.504;8.248;2022-08-20T09:55:21;19.60;99.90
20777;DHT22;10548;47.504;8.248;2022-08-20T09:57:50;19.40;99.90
20777;DHT22;10548;47.504;8.248;2022-08-20T10:00:18;19.60;99.90
20777;DHT22;10548;47.504;8.248;2022-08-20T10:02:45;20.00;99.90
20777;DHT22;10548;47.504;8.248;2022-08-20T10:05:13;19.90;99.90
20777;DHT22;10548;47.504;8.248;2022-08-20T10:07:40;19.80;99.90
20777;DHT22;10548;47.504;8.248;2022-08-20T10:10:10;20.10;99.90
20777;DHT22;10548;47.504;8.248;2022-08-20T10:12:38;19.90;99.90
20777;DHT22;10548;47.504;8.248;2022-08-20T10:15:08;19.90;99.90
20777;DHT22;10548;47.504;8.248;2022-08-20T10:17:37;20.10;99.90
20777;DHT22;10548;47.504;8.248;2022-08-20T10:20:05;20.60;99.90
20777;DHT22;10548;47.504;8.248;2022-08-20T10:22:34;20.30;99.90
20777;DHT22;10548;47.504;8.248;2022-08-20T10:25:03;19.90;99.90
20777;DHT22;10548;47.504;8.248;2022-08-20T10:27:30;20.10;99.90
20777;DHT22;10548;47.504;8.248;2022-08-20T10:29:57;20.50;99.90
20777;DHT22;10548;47.504;8.248;2022-08-20T10:32:24;20.60;99.90
20777;DHT22;10548;47.504;8.248;2022-08-20T10:34:51;20.70;99.90
20777;DHT22;10548;47.504;8.248;2022-08-20T10:37:20;21.30;99.90
20777;DHT22;10548;47.504;8.248;2022-08-20T10:39:48;20.60;99.90
20777;DHT22;10548;47.504;8.248;2022-08-20T10:42:15;21.00;99.90
20777;DHT22;10548;47.504;8.248;2022-08-20T10:44:42;21.00;99.90
20777;DHT22;10548;47.504;8.248;2022-08-20T10:47:17;20.80;99.90
20777;DHT22;10548;47.504;8.248;2022-08-20T10:49:45;20.70;99.90
20777;DHT22;10548;47.504;8.248;2022-08-20T10:52:12;20.80;99.90
20777;DHT22;10548;47.504;8.248;2022-08-20T10:54:39;21.00;99.90
20777;DHT22;10548;47.504;8.248;2022-08-20T10:57:13;21.40;99.90
20777;DHT22;10548;47.504;8.248;2022-08-20T10:59:43;21.40;99.90
20777;DHT22;10548;47.504;8.248;2022-08-20T11:02:13;21.60;99.90
20777;DHT22;10548;47.504;8.248;2022-08-20T11:04:40;22.30;99.90
20777;DHT22;10548;47.504;8.248;2022-08-20T11:07:35;21.70;99.90
20777;DHT22;10548;47.504;8.248;2022-08-20T11:10:25;22.20;99.90
20777;DHT22;10548;47.504;8.248;2022-08-20T11:12:53;22.70;99.90
20777;DHT22;10548;47.504;8.248;2022-08-20T11:15:20;22.60;99.90
20777;DHT22;10548;47.504;8.248;2022-08-20T11:17:47;22.80;99.90
20777;DHT22;10548;47.504;8.248;2022-08-20T11:20:16;23.00;99.90
20777;DHT22;10548;47.504;8.248;2022-08-20T11:22:43;23.60;99.90
20777;DHT22;10548;47.504;8.248;2022-08-20T11:25:10;23.30;99.80
20777;DHT22;10548;47.504;8.248;2022-08-20T11:27:41;23.20;99.90
20777;DHT22;10548;47.504;8.248;2022-08-20T11:30:13;23.40;99.90
20777;DHT22;10548;47.504;8.248;2022-08-20T11:32:41;23.70;99.90
20777;DHT22;10548;47.504;8.248;2022-08-20T11:35:08;23.60;99.90
20777;DHT22;10548;47.504;8.248;2022-08-20T11:37:59;24.70;98.10
20777;DHT22;10548;47.504;8.248;2022-08-20T11:40:27;24.70;95.20
20777;DHT22;10548;47.504;8.248;2022-08-20T11:42:55;25.00;96.20
20777;DHT22;10548;47.504;8.248;2022-08-20T11:45:49;25.40;92.00
20777;DHT22;10548;47.504;8.248;2022-08-20T11:48:16;26.00;90.30
20777;DHT22;10548;47.504;8.248;2022-08-20T11:50:44;25.90;89.00
20777;DHT22;10548;47.504;8.248;2022-08-20T11:53:11;25.70;90.00
20777;DHT22;10548;47.504;8.248;2022-08-20T11:55:41;23.90;94.80
20777;DHT22;10548;47.504;8.248;2022-08-20T11:58:08;24.00;94.80
20777;DHT22;10548;47.504;8.248;2022-08-20T12:00:36;24.00;90.00
20777;DHT22;10548;47.504;8.248;2022-08-20T12:03:05;24.70;84.00
20777;DHT22;10548;47.504;8.248;2022-08-20T12:05:41;25.10;80.60
20777;DHT22;10548;47.504;8.248;2022-08-20T12:08:09;24.80;79.00
20777;DHT22;10548;47.504;8.248;2022-08-20T12:10:52;23.50;95.50
20777;DHT22;10548;47.504;8.248;2022-08-20T12:13:19;23.50;98.10
20777;DHT22;10548;47.504;8.248;2022-08-20T12:15:56;23.60;97.80
20777;DHT22;10548;47.504;8.248;2022-08-20T12:18:23;23.50;97.40
20777;DHT22;10548;47.504;8.248;2022-08-20T12:20:53;23.60;98.90
20777;DHT22;10548;47.504;8.248;2022-08-20T12:23:20;24.00;97.20
20777;DHT22;10548;47.504;8.248;2022-08-20T12:25:47;24.10;96.10
20777;DHT22;10548;47.504;8.248;2022-08-20T12:28:15;23.90;96.70
20777;DHT22;10548;47.504;8.248;2022-08-20T12:30:42;24.40;95.50
20777;DHT22;10548;47.504;8.248;2022-08-20T12:33:09;25.00;95.60
20777;DHT22;10548;47.504;8.248;2022-08-20T12:35:36;26.10;90.40
20777;DHT22;10548;47.504;8.248;2022-08-20T12:38:04;25.90;93.70
20777;DHT22;10548;47.504;8.248;2022-08-20T12:40:32;25.60;93.70
20777;DHT22;10548;47.504;8.248;2022-08-20T12:43:01;25.00;92.40
20777;DHT22;10548;47.504;8.248;2022-08-20T12:45:29;25.10;91.70
20777;DHT22;10548;47.504;8.248;2022-08-20T12:48:05;24.60;92.00
20777;DHT22;10548;47.504;8.248;2022-08-20T12:50:47;24.90;91.10
20777;DHT22;10548;47.504;8.248;2022-08-20T12:53:19;24.20;91.90
20777;DHT22;10548;47.504;8.248;2022-08-20T12:55:46;24.30;91.10
20777;DHT22;10548;47.504;8.248;2022-08-20T12:58:13;25.00;90.10
20777;DHT22;10548;47.504;8.248;2022-08-20T13:00:42;25.30;86.80
20777;DHT22;10548;47.504;8.248;2022-08-20T13:03:17;25.10;90.10
20777;DHT22;10548;47.504;8.248;2022-08-20T13:05:45;25.20;88.00
20777;DHT22;10548;47.504;8.248;2022-08-20T13:08:12;25.60;82.70
20777;DHT22;10548;47.504;8.248;2022-08-20T13:10:42;25.90;84.10
20777;DHT22;10548;47.504;8.248;2022-08-20T13:13:14;25.90;82.00
20777;DHT22;10548;47.504;8.248;2022-08-20T13:15:47;25.70;79.90
20777;DHT22;10548;47.504;8.248;2022-08-20T13:18:14;26.40;81.30
20777;DHT22;10548;47.504;8.248;2022-08-20T13:20:42;25.10;84.60
20777;DHT22;10548;47.504;8.248;2022-08-20T13:23:09;26.00;85.30
20777;DHT22;10548;47.504;8.248;2022-08-20T13:25:36;25.50;84.80
20777;DHT22;10548;47.504;8.248;2022-08-20T13:28:04;25.70;82.60
20777;DHT22;10548;47.504;8.248;2022-08-20T13:30:33;26.50;78.00
20777;DHT22;10548;47.504;8.248;2022-08-20T13:33:01;26.50;81.00
20777;DHT22;10548;47.504;8.248;2022-08-20T13:35:28;26.80;81.00
20777;DHT22;10548;47.504;8.248;2022-08-20T13:37:55;26.80;79.00
20777;DHT22;10548;47.504;8.248;2022-08-20T13:40:23;27.10;74.60
20777;DHT22;10548;47.504;8.248;2022-08-20T13:42:50;26.20;78.50
20777;DHT22;10548;47.504;8.248;2022-08-20T13:45:17;25.40;78.60
20777;DHT22;10548;47.504;8.248;2022-08-20T13:47:45;25.60;81.10
20777;DHT22;10548;47.504;8.248;2022-08-20T13:50:19;27.00;76.90
20777;DHT22;10548;47.504;8.248;2022-08-20T13:52:46;28.60;70.50
20777;DHT22;10548;47.504;8.248;2022-08-20T13:55:18;26.60;71.30
20777;DHT22;10548;47.504;8.248;2022-08-20T13:57:47;27.60;68.70
20777;DHT22;10548;47.504;8.248;2022-08-20T14:00:24;26.40;72.60
20777;DHT22;10548;47.504;8.248;2022-08-20T14:02:59;25.90;71.50
20777;DHT22;10548;47.504;8.248;2022-08-20T14:05:26;25.50;71.70
20777;DHT22;10548;47.504;8.248;2022-08-20T14:07:53;25.90;76.40
20777;DHT22;10548;47.504;8.248;2022-08-20T14:10:24;27.10;71.00
20777;DHT22;10548;47.504;8.248;2022-08-20T14:12:57;28.10;64.70
20777;DHT22;10548;47.504;8.248;2022-08-20T14:15:25;27.30;70.10
20777;DHT22;10548;47.504;8.248;2022-08-20T14:17:54;26.40;72.90
20777;DHT22;10548;47.504;8.248;2022-08-20T14:20:27;27.40;75.20
20777;DHT22;10548;47.504;8.248;2022-08-20T14:22:58;27.00;72.20
20777;DHT22;10548;47.504;8.248;2022-08-20T14:25:27;26.40;73.50
20777;DHT22;10548;47.504;8.248;2022-08-20T14:27:54;26.20;72.90
20777;DHT22;10548;47.504;8.248;2022-08-20T14:30:28;25.80;76.70
20777;DHT22;10548;47.504;8.248;2022-08-20T14:32:55;25.90;74.60
20777;DHT22;10548;47.504;8.248;2022-08-20T14:35:23;26.20;71.80
20777;DHT22;10548;47.504;8.248;2022-08-20T14:37:52;26.10;72.50
20777;DHT22;10548;47.504;8.248;2022-08-20T14:40:22;26.00;73.50
20777;DHT22;10548;47.504;8.248;2022-08-20T14:42:49;26.20;72.50
20777;DHT22;10548;47.504;8.248;2022-08-20T14:45:17;26.10;74.10
20777;DHT22;10548;47.504;8.248;2022-08-20T14:47:48;25.60;76.90
20777;DHT22;10548;47.504;8.248;2022-08-20T14:50:31;25.70;74.50
20777;DHT22;10548;47.504;8.248;2022-08-20T14:52:59;25.50;75.40
20777;DHT22;10548;47.504;8.248;2022-08-20T14:55:29;25.90;71.80
20777;DHT22;10548;47.504;8.248;2022-08-20T14:57:57;25.70;70.40
20777;DHT22;10548;47.504;8.248;2022-08-20T15:00:27;26.00;70.00
20777;DHT22;10548;47.504;8.248;2022-08-20T15:02:55;25.60;69.30
20777;DHT22;10548;47.504;8.248;2022-08-20T15:05:23;26.00;71.70
20777;DHT22;10548;47.504;8.248;2022-08-20T15:07:50;26.00;69.40
20777;DHT22;10548;47.504;8.248;2022-08-20T15:10:28;25.90;69.20
20777;DHT22;10548;47.504;8.248;2022-08-20T15:12:56;25.80;72.00
20777;DHT22;10548;47.504;8.248;2022-08-20T15:15:24;25.90;69.60
20777;DHT22;10548;47.504;8.248;2022-08-20T15:17:54;25.40;70.20
20777;DHT22;10548;47.504;8.248;2022-08-20T15:20:26;25.60;73.40
20777;DHT22;10548;47.504;8.248;2022-08-20T15:22:54;25.80;66.30
20777;DHT22;10548;47.504;8.248;2022-08-20T15:25:25;26.70;62.80
20777;DHT22;10548;47.504;8.248;2022-08-20T15:27:57;28.80;56.60
20777;DHT22;10548;47.504;8.248;2022-08-20T15:30:28;29.40;53.90
20777;DHT22;10548;47.504;8.248;2022-08-20T15:32:56;28.40;57.20
20777;DHT22;10548;47.504;8.248;2022-08-20T15:35:25;27.80;58.50
20777;DHT22;10548;47.504;8.248;2022-08-20T15:37:55;27.70;59.20
20777;DHT22;10548;47.504;8.248;2022-08-20T15:40:25;27.20;63.70
20777;DHT22;10548;47.504;8.248;2022-08-20T15:42:55;28.00;60.30
20777;DHT22;10548;47.504;8.248;2022-08-20T15:45:23;29.90;54.60
20777;DHT22;10548;47.504;8.248;2022-08-20T15:48:15;31.30;49.10
20777;DHT22;10548;47.504;8.248;2022-08-20T15:51:09;33.30;45.60
20777;DHT22;10548;47.504;8.248;2022-08-20T15:54:20;32.40;45.30
20777;DHT22;10548;47.504;8.248;2022-08-20T15:57:10;32.30;44.90
20777;DHT22;10548;47.504;8.248;2022-08-20T16:00:20;32.70;43.10
20777;DHT22;10548;47.504;8.248;2022-08-20T16:03:25;30.60;46.30
20777;DHT22;10548;47.504;8.248;2022-08-20T16:06:17;29.30;52.30
20777;DHT22;10548;47.504;8.248;2022-08-20T16:11:54;29.70;51.70
20777;DHT22;10548;47.504;8.248;2022-08-20T16:14:26;30.70;49.60
20777;DHT22;10548;47.504;8.248;2022-08-20T16:17:16;27.30;55.80